SAS4830 EDDH-ENGM
Flight info
| Callsign | SAS4830 |
|---|---|
| Flight time | 1h 10m |
| Altitude | 37000 |
| Route | SOKWO1G/33 SOKWO T814 EXNEL M105 AMRAK DCT NERDO/N0449F380 DCT PIPEX/N0446F370 M609 ULMUG/N0449F390 M609 RIPAM |
| Aircraft | A320/M-SDE3FGHIRWY/LB1 |
Departure
| Time | 2026-05-07 17:39 |
|---|---|
| Airport | Hamburg Helmut Schmidt Airport (EDDH) |
Arrival
| Time | 2026-05-07 18:49 |
|---|---|
| Airport | Oslo-Gardermoen International Airport (ENGM) |
| Time | Latitude | Longitude | Altitude | Speed | Heading |
|---|---|---|---|---|---|
| 2026-05-07 17:18 | 53.62845 | 10.00218 | 49 ft | 0 kts | 62° |
| 2026-05-07 17:33 | 53.62837 | 10.00193 | 46 ft | 4 kts | 62° |
| 2026-05-07 17:33 | 53.62824 | 10.00156 | 45 ft | 4 kts | 55° |
| 2026-05-07 17:34 | 53.62808 | 10.00125 | 44 ft | 4 kts | 30° |
| 2026-05-07 17:34 | 53.62791 | 10.00118 | 46 ft | 1 kts | 333° |
| 2026-05-07 17:37 | 53.62793 | 10.00116 | 47 ft | 1 kts | 333° |
| 2026-05-07 17:37 | 53.62813 | 10.00098 | 48 ft | 5 kts | 332° |
| 2026-05-07 17:37 | 53.62850 | 10.00040 | 48 ft | 9 kts | 296° |
| 2026-05-07 17:37 | 53.62835 | 9.99928 | 44 ft | 12 kts | 242° |
| 2026-05-07 17:38 | 53.62820 | 9.99801 | 45 ft | 10 kts | 298° |
| 2026-05-07 17:38 | 53.62852 | 9.99759 | 45 ft | 0 kts | 330° |
| 2026-05-07 17:38 | 53.62880 | 9.99733 | 45 ft | 21 kts | 333° |
| 2026-05-07 17:39 | 53.63245 | 9.99418 | 47 ft | 93 kts | 332° |
| 2026-05-07 17:39 | 53.63999 | 9.98769 | 51 ft | 147 kts | 333° |
| 2026-05-07 17:39 | 53.64964 | 9.97889 | 455 ft | 154 kts | 338° |
| 2026-05-07 17:39 | 53.65922 | 9.97061 | 1104 ft | 156 kts | 339° |
| 2026-05-07 17:40 | 53.66937 | 9.96206 | 1497 ft | 174 kts | 335° |
| 2026-05-07 17:40 | 53.68083 | 9.95225 | 1860 ft | 196 kts | 337° |
| 2026-05-07 17:40 | 53.69427 | 9.94520 | 2303 ft | 206 kts | 2° |
| 2026-05-07 17:40 | 53.70872 | 9.94613 | 2959 ft | 211 kts | 5° |
| 2026-05-07 17:41 | 53.72347 | 9.94656 | 3805 ft | 212 kts | 4° |
| 2026-05-07 17:41 | 53.73769 | 9.95062 | 4593 ft | 210 kts | 23° |
| 2026-05-07 17:41 | 53.75099 | 9.96369 | 5099 ft | 226 kts | 35° |
| 2026-05-07 17:41 | 53.76441 | 9.97892 | 5608 ft | 247 kts | 36° |
| 2026-05-07 17:42 | 53.77913 | 9.99517 | 6374 ft | 257 kts | 34° |
| 2026-05-07 17:42 | 53.79424 | 10.01167 | 7241 ft | 262 kts | 34° |
| 2026-05-07 17:42 | 53.80979 | 10.02865 | 8043 ft | 269 kts | 33° |
| 2026-05-07 17:42 | 53.82569 | 10.04602 | 8892 ft | 275 kts | 33° |
| 2026-05-07 17:43 | 53.84316 | 10.05978 | 9692 ft | 282 kts | 13° |
| 2026-05-07 17:43 | 53.86294 | 10.06074 | 10380 ft | 292 kts | 351° |
| 2026-05-07 17:43 | 53.88381 | 10.05485 | 10646 ft | 315 kts | 349° |
| 2026-05-07 17:43 | 53.90617 | 10.04781 | 10877 ft | 337 kts | 348° |
| 2026-05-07 17:44 | 53.92959 | 10.04014 | 11441 ft | 346 kts | 348° |
| 2026-05-07 17:44 | 53.95339 | 10.03230 | 12138 ft | 351 kts | 348° |
| 2026-05-07 17:44 | 53.97754 | 10.02442 | 12855 ft | 355 kts | 348° |
| 2026-05-07 17:44 | 54.00199 | 10.01657 | 13585 ft | 359 kts | 348° |
| 2026-05-07 17:45 | 54.02666 | 10.00870 | 14264 ft | 363 kts | 348° |
| 2026-05-07 17:45 | 54.05160 | 10.00076 | 14911 ft | 366 kts | 349° |
| 2026-05-07 17:45 | 54.07652 | 9.99285 | 15541 ft | 369 kts | 348° |
| 2026-05-07 17:45 | 54.10219 | 9.98472 | 16184 ft | 372 kts | 348° |
| 2026-05-07 17:46 | 54.12777 | 9.97661 | 16810 ft | 376 kts | 348° |
| 2026-05-07 17:46 | 54.15361 | 9.96838 | 17471 ft | 379 kts | 348° |
| 2026-05-07 17:46 | 54.17935 | 9.96016 | 18119 ft | 383 kts | 348° |
| 2026-05-07 17:46 | 54.20563 | 9.95177 | 18741 ft | 386 kts | 348° |
| 2026-05-07 17:47 | 54.23216 | 9.94328 | 19333 ft | 390 kts | 348° |
| 2026-05-07 17:47 | 54.25894 | 9.93468 | 19935 ft | 393 kts | 348° |
| 2026-05-07 17:47 | 54.28598 | 9.92598 | 20547 ft | 396 kts | 348° |
| 2026-05-07 17:47 | 54.31322 | 9.91717 | 21131 ft | 400 kts | 348° |
| 2026-05-07 17:48 | 54.34063 | 9.90828 | 21683 ft | 403 kts | 348° |
| 2026-05-07 17:48 | 54.36831 | 9.89933 | 22214 ft | 406 kts | 348° |
| 2026-05-07 17:48 | 54.39622 | 9.89032 | 22723 ft | 409 kts | 348° |
| 2026-05-07 17:48 | 54.42432 | 9.88125 | 23250 ft | 412 kts | 348° |
| 2026-05-07 17:49 | 54.45264 | 9.87210 | 23737 ft | 416 kts | 348° |
| 2026-05-07 17:49 | 54.48123 | 9.86340 | 24142 ft | 419 kts | 352° |
| 2026-05-07 17:49 | 54.51024 | 9.85727 | 24549 ft | 421 kts | 353° |
| 2026-05-07 17:49 | 54.53943 | 9.85206 | 24964 ft | 423 kts | 354° |
| 2026-05-07 17:50 | 54.56882 | 9.84736 | 25370 ft | 425 kts | 354° |
| 2026-05-07 17:50 | 54.59838 | 9.84280 | 25775 ft | 427 kts | 355° |
| 2026-05-07 17:50 | 54.62801 | 9.83819 | 26182 ft | 429 kts | 355° |
| 2026-05-07 17:50 | 54.65784 | 9.83343 | 26580 ft | 431 kts | 355° |
| 2026-05-07 17:51 | 54.68777 | 9.82848 | 26976 ft | 433 kts | 355° |
| 2026-05-07 17:51 | 54.71785 | 9.82339 | 27358 ft | 435 kts | 355° |
| 2026-05-07 17:51 | 54.74808 | 9.81822 | 27748 ft | 438 kts | 355° |
| 2026-05-07 17:51 | 54.77855 | 9.81297 | 28133 ft | 440 kts | 355° |
| 2026-05-07 17:52 | 54.79875 | 9.80949 | 28386 ft | 441 kts | 355° |
| 2026-05-07 17:52 | 54.82936 | 9.80425 | 28737 ft | 443 kts | 355° |
| 2026-05-07 17:52 | 54.86013 | 9.79902 | 29122 ft | 445 kts | 355° |
| 2026-05-07 17:52 | 54.90105 | 9.79199 | 29584 ft | 448 kts | 354° |
| 2026-05-07 17:53 | 54.93214 | 9.78660 | 29935 ft | 450 kts | 355° |
| 2026-05-07 17:53 | 54.96324 | 9.78123 | 30374 ft | 449 kts | 355° |
| 2026-05-07 17:53 | 54.99426 | 9.77589 | 30804 ft | 447 kts | 355° |
| 2026-05-07 17:53 | 55.02526 | 9.77055 | 31241 ft | 446 kts | 355° |
| 2026-05-07 17:54 | 55.04607 | 9.76696 | 31539 ft | 445 kts | 355° |
| 2026-05-07 17:54 | 55.07680 | 9.76167 | 31991 ft | 443 kts | 355° |
| 2026-05-07 17:54 | 55.10747 | 9.75640 | 32455 ft | 441 kts | 355° |
| 2026-05-07 17:54 | 55.13799 | 9.75116 | 32911 ft | 439 kts | 355° |
| 2026-05-07 17:55 | 55.16801 | 9.74602 | 33377 ft | 438 kts | 355° |
| 2026-05-07 17:55 | 55.19824 | 9.74082 | 33844 ft | 436 kts | 355° |
| 2026-05-07 17:55 | 55.22843 | 9.73560 | 34286 ft | 434 kts | 355° |
| 2026-05-07 17:55 | 55.25848 | 9.73039 | 34634 ft | 434 kts | 355° |
| 2026-05-07 17:56 | 55.28860 | 9.72514 | 34937 ft | 435 kts | 355° |
| 2026-05-07 17:56 | 55.31881 | 9.71986 | 35219 ft | 437 kts | 354° |
| 2026-05-07 17:56 | 55.34908 | 9.71456 | 35492 ft | 438 kts | 354° |
| 2026-05-07 17:56 | 55.37944 | 9.70922 | 35794 ft | 439 kts | 354° |
| 2026-05-07 17:57 | 55.40983 | 9.70388 | 36081 ft | 439 kts | 354° |
| 2026-05-07 17:57 | 55.44030 | 9.69858 | 36352 ft | 440 kts | 354° |
| 2026-05-07 17:57 | 55.47084 | 9.69331 | 36615 ft | 441 kts | 353° |
| 2026-05-07 17:57 | 55.50142 | 9.68801 | 36867 ft | 443 kts | 353° |
| 2026-05-07 17:58 | 55.53214 | 9.68258 | 37064 ft | 445 kts | 353° |
| 2026-05-07 17:58 | 55.56307 | 9.67706 | 37115 ft | 447 kts | 353° |
| 2026-05-07 17:58 | 55.62513 | 9.66598 | 37114 ft | 448 kts | 353° |
| 2026-05-07 17:59 | 55.68730 | 9.65489 | 37111 ft | 448 kts | 353° |
| 2026-05-07 17:59 | 55.74937 | 9.64375 | 37111 ft | 448 kts | 353° |
| 2026-05-07 18:00 | 55.81146 | 9.63277 | 37109 ft | 449 kts | 353° |
| 2026-05-07 18:00 | 55.87368 | 9.62167 | 37123 ft | 449 kts | 353° |
| 2026-05-07 18:01 | 55.93589 | 9.61047 | 37136 ft | 449 kts | 353° |
| 2026-05-07 18:01 | 55.99821 | 9.59916 | 37135 ft | 449 kts | 353° |
| 2026-05-07 18:02 | 56.09093 | 9.58234 | 37130 ft | 448 kts | 353° |
| 2026-05-07 18:03 | 56.15302 | 9.57102 | 37128 ft | 448 kts | 353° |
| 2026-05-07 18:03 | 56.21507 | 9.55978 | 37130 ft | 448 kts | 353° |
| 2026-05-07 18:04 | 56.27703 | 9.54849 | 37128 ft | 447 kts | 353° |
| 2026-05-07 18:04 | 56.33896 | 9.53716 | 37127 ft | 447 kts | 353° |
| 2026-05-07 18:05 | 56.40077 | 9.52559 | 37125 ft | 447 kts | 353° |
| 2026-05-07 18:05 | 56.46263 | 9.51400 | 37123 ft | 446 kts | 353° |
| 2026-05-07 18:06 | 56.52444 | 9.50269 | 37132 ft | 446 kts | 352° |
| 2026-05-07 18:06 | 56.58623 | 9.49125 | 37127 ft | 446 kts | 352° |
| 2026-05-07 18:07 | 56.64759 | 9.47967 | 37123 ft | 446 kts | 352° |
| 2026-05-07 18:07 | 56.70936 | 9.46806 | 37130 ft | 446 kts | 352° |
| 2026-05-07 18:08 | 56.77111 | 9.45646 | 37134 ft | 446 kts | 352° |
| 2026-05-07 18:08 | 56.83335 | 9.45767 | 37139 ft | 448 kts | 1° |
| 2026-05-07 18:09 | 56.89564 | 9.46445 | 37135 ft | 448 kts | 1° |
| 2026-05-07 18:09 | 56.95796 | 9.47125 | 37133 ft | 448 kts | 1° |
| 2026-05-07 18:10 | 57.02023 | 9.47800 | 37135 ft | 448 kts | 1° |
| 2026-05-07 18:10 | 57.08255 | 9.48487 | 37140 ft | 449 kts | 1° |
| 2026-05-07 18:11 | 57.14494 | 9.49189 | 37138 ft | 450 kts | 1° |
| 2026-05-07 18:11 | 57.20747 | 9.49881 | 37138 ft | 450 kts | 1° |
| 2026-05-07 18:12 | 57.27001 | 9.50581 | 37139 ft | 450 kts | 1° |
| 2026-05-07 18:12 | 57.33254 | 9.51289 | 37149 ft | 450 kts | 0° |
| 2026-05-07 18:13 | 57.39470 | 9.51982 | 37149 ft | 450 kts | 0° |
| 2026-05-07 18:13 | 57.45728 | 9.52680 | 37150 ft | 450 kts | 0° |
| 2026-05-07 18:14 | 57.51983 | 9.53394 | 37150 ft | 450 kts | 0° |
| 2026-05-07 18:14 | 57.58240 | 9.54108 | 37171 ft | 450 kts | 0° |
| 2026-05-07 18:15 | 57.64499 | 9.54828 | 37161 ft | 450 kts | 0° |
| 2026-05-07 18:15 | 57.70748 | 9.55547 | 37160 ft | 450 kts | 0° |
| 2026-05-07 18:16 | 57.76998 | 9.56260 | 37156 ft | 450 kts | 0° |
| 2026-05-07 18:16 | 57.83243 | 9.56980 | 37156 ft | 450 kts | 0° |
| 2026-05-07 18:17 | 57.89488 | 9.57700 | 37168 ft | 450 kts | 360° |
| 2026-05-07 18:17 | 57.95736 | 9.58420 | 37162 ft | 450 kts | 360° |
| 2026-05-07 18:18 | 58.01987 | 9.59147 | 37159 ft | 449 kts | 0° |
| 2026-05-07 18:18 | 58.08232 | 9.59884 | 37158 ft | 449 kts | 0° |
| 2026-05-07 18:19 | 58.14436 | 9.60609 | 37175 ft | 449 kts | 359° |
| 2026-05-07 18:19 | 58.20674 | 9.61334 | 37166 ft | 449 kts | 359° |
| 2026-05-07 18:20 | 58.26908 | 9.62079 | 37158 ft | 449 kts | 359° |
| 2026-05-07 18:20 | 58.33147 | 9.62822 | 37157 ft | 449 kts | 360° |
| 2026-05-07 18:21 | 58.39384 | 9.63568 | 37156 ft | 449 kts | 359° |
| 2026-05-07 18:21 | 58.45626 | 9.64315 | 37158 ft | 449 kts | 360° |
| 2026-05-07 18:22 | 58.51865 | 9.65078 | 37157 ft | 449 kts | 360° |
| 2026-05-07 18:22 | 58.58106 | 9.65829 | 36597 ft | 448 kts | 359° |
| 2026-05-07 18:22 | 58.61217 | 9.66204 | 36134 ft | 446 kts | 359° |
| 2026-05-07 18:23 | 58.64303 | 9.66577 | 35674 ft | 444 kts | 359° |
| 2026-05-07 18:23 | 58.67381 | 9.66949 | 35249 ft | 442 kts | 359° |
| 2026-05-07 18:23 | 58.70449 | 9.67321 | 34808 ft | 440 kts | 358° |
| 2026-05-07 18:23 | 58.73503 | 9.67688 | 34374 ft | 439 kts | 358° |
| 2026-05-07 18:24 | 58.76546 | 9.68051 | 33915 ft | 437 kts | 358° |
| 2026-05-07 18:24 | 58.79583 | 9.68419 | 33415 ft | 438 kts | 358° |
| 2026-05-07 18:24 | 58.82634 | 9.68790 | 32926 ft | 439 kts | 358° |
| 2026-05-07 18:24 | 58.85685 | 9.69158 | 32446 ft | 440 kts | 358° |
| 2026-05-07 18:25 | 58.88751 | 9.69530 | 31974 ft | 442 kts | 358° |
| 2026-05-07 18:25 | 58.91825 | 9.69905 | 31507 ft | 443 kts | 358° |
| 2026-05-07 18:25 | 58.94910 | 9.70284 | 31051 ft | 445 kts | 359° |
| 2026-05-07 18:25 | 58.98006 | 9.70665 | 30629 ft | 446 kts | 358° |
| 2026-05-07 18:26 | 59.01071 | 9.71037 | 30182 ft | 447 kts | 358° |
| 2026-05-07 18:26 | 59.04217 | 9.71419 | 29655 ft | 448 kts | 358° |
| 2026-05-07 18:26 | 59.07297 | 9.71797 | 29147 ft | 450 kts | 358° |
| 2026-05-07 18:26 | 59.10457 | 9.72193 | 28627 ft | 448 kts | 358° |
| 2026-05-07 18:27 | 59.13552 | 9.72585 | 28135 ft | 445 kts | 358° |
| 2026-05-07 18:27 | 59.16595 | 9.72970 | 27652 ft | 442 kts | 358° |
| 2026-05-07 18:27 | 59.19690 | 9.73355 | 27170 ft | 437 kts | 358° |
| 2026-05-07 18:27 | 59.21683 | 9.73603 | 26859 ft | 431 kts | 358° |
| 2026-05-07 18:28 | 59.25594 | 9.74099 | 26359 ft | 418 kts | 358° |
| 2026-05-07 18:28 | 59.28464 | 9.74475 | 25973 ft | 409 kts | 358° |
| 2026-05-07 18:28 | 59.31269 | 9.74839 | 25596 ft | 401 kts | 358° |
| 2026-05-07 18:28 | 59.34027 | 9.75695 | 25223 ft | 402 kts | 8° |
| 2026-05-07 18:29 | 59.36708 | 9.77148 | 24845 ft | 397 kts | 9° |
| 2026-05-07 18:29 | 59.39354 | 9.78612 | 24480 ft | 393 kts | 9° |
| 2026-05-07 18:29 | 59.41972 | 9.80071 | 24125 ft | 390 kts | 9° |
| 2026-05-07 18:29 | 59.44568 | 9.81527 | 23770 ft | 386 kts | 9° |
| 2026-05-07 18:30 | 59.47132 | 9.82969 | 23359 ft | 382 kts | 9° |
| 2026-05-07 18:30 | 59.49672 | 9.84398 | 22939 ft | 378 kts | 10° |
| 2026-05-07 18:30 | 59.52186 | 9.85858 | 22556 ft | 376 kts | 14° |
| 2026-05-07 18:30 | 59.54524 | 9.88251 | 22146 ft | 381 kts | 26° |
| 2026-05-07 18:31 | 59.56750 | 9.91038 | 21747 ft | 377 kts | 27° |
| 2026-05-07 18:31 | 59.58961 | 9.93817 | 21349 ft | 383 kts | 27° |
| 2026-05-07 18:31 | 59.61224 | 9.96648 | 20968 ft | 383 kts | 27° |
| 2026-05-07 18:31 | 59.63451 | 9.99464 | 20559 ft | 378 kts | 27° |
| 2026-05-07 18:32 | 59.65656 | 10.02269 | 20099 ft | 376 kts | 28° |
| 2026-05-07 18:32 | 59.67849 | 10.05070 | 19647 ft | 374 kts | 28° |
| 2026-05-07 18:32 | 59.70024 | 10.07857 | 19196 ft | 371 kts | 28° |
| 2026-05-07 18:32 | 59.72183 | 10.10628 | 18764 ft | 368 kts | 28° |
| 2026-05-07 18:33 | 59.74325 | 10.13370 | 18322 ft | 366 kts | 29° |
| 2026-05-07 18:33 | 59.76458 | 10.16102 | 17829 ft | 363 kts | 29° |
| 2026-05-07 18:33 | 59.78572 | 10.18815 | 17357 ft | 361 kts | 29° |
| 2026-05-07 18:33 | 59.80674 | 10.21515 | 16873 ft | 358 kts | 29° |
| 2026-05-07 18:34 | 59.82735 | 10.24164 | 16402 ft | 356 kts | 29° |
| 2026-05-07 18:34 | 59.84138 | 10.25969 | 16076 ft | 355 kts | 29° |
| 2026-05-07 18:34 | 59.86203 | 10.28631 | 15625 ft | 353 kts | 30° |
| 2026-05-07 18:34 | 59.88922 | 10.32149 | 15011 ft | 351 kts | 30° |
| 2026-05-07 18:35 | 59.90956 | 10.34783 | 14637 ft | 346 kts | 30° |
| 2026-05-07 18:35 | 59.92962 | 10.37389 | 14269 ft | 342 kts | 30° |
| 2026-05-07 18:35 | 59.94303 | 10.39133 | 14019 ft | 339 kts | 30° |
| 2026-05-07 18:35 | 59.96898 | 10.42512 | 13489 ft | 334 kts | 30° |
| 2026-05-07 18:36 | 59.98205 | 10.44215 | 13245 ft | 329 kts | 30° |
| 2026-05-07 18:36 | 60.00110 | 10.46703 | 12928 ft | 324 kts | 30° |
| 2026-05-07 18:36 | 60.01962 | 10.49116 | 12612 ft | 319 kts | 30° |
| 2026-05-07 18:36 | 60.03832 | 10.51557 | 12281 ft | 315 kts | 30° |
| 2026-05-07 18:37 | 60.05631 | 10.53908 | 11982 ft | 311 kts | 30° |
| 2026-05-07 18:37 | 60.07457 | 10.56302 | 11660 ft | 307 kts | 30° |
| 2026-05-07 18:37 | 60.09230 | 10.58633 | 11352 ft | 304 kts | 30° |
| 2026-05-07 18:37 | 60.10991 | 10.60947 | 11039 ft | 301 kts | 31° |
| 2026-05-07 18:38 | 60.12712 | 10.63216 | 10745 ft | 298 kts | 31° |
| 2026-05-07 18:38 | 60.14433 | 10.65487 | 10452 ft | 295 kts | 31° |
| 2026-05-07 18:38 | 60.16140 | 10.67741 | 10108 ft | 291 kts | 31° |
| 2026-05-07 18:38 | 60.17830 | 10.69970 | 9600 ft | 290 kts | 31° |
| 2026-05-07 18:39 | 60.19507 | 10.72183 | 9115 ft | 287 kts | 31° |
| 2026-05-07 18:39 | 60.21166 | 10.74381 | 8668 ft | 284 kts | 31° |
| 2026-05-07 18:39 | 60.22806 | 10.76556 | 8237 ft | 281 kts | 32° |
| 2026-05-07 18:39 | 60.24428 | 10.78706 | 7773 ft | 278 kts | 32° |
| 2026-05-07 18:40 | 60.26040 | 10.80847 | 7349 ft | 277 kts | 32° |
| 2026-05-07 18:40 | 60.27640 | 10.82977 | 7046 ft | 275 kts | 33° |
| 2026-05-07 18:40 | 60.29228 | 10.85094 | 6727 ft | 273 kts | 33° |
| 2026-05-07 18:40 | 60.30806 | 10.87201 | 6404 ft | 272 kts | 34° |
| 2026-05-07 18:41 | 60.32382 | 10.89303 | 6032 ft | 272 kts | 33° |
| 2026-05-07 18:41 | 60.33957 | 10.91406 | 5681 ft | 271 kts | 33° |
| 2026-05-07 18:41 | 60.35508 | 10.93482 | 5534 ft | 263 kts | 33° |
| 2026-05-07 18:41 | 60.37009 | 10.95497 | 5401 ft | 255 kts | 33° |
| 2026-05-07 18:42 | 60.38455 | 10.97448 | 5270 ft | 246 kts | 34° |
| 2026-05-07 18:42 | 60.39857 | 10.99338 | 5120 ft | 238 kts | 33° |
| 2026-05-07 18:42 | 60.41228 | 11.01182 | 5009 ft | 236 kts | 33° |
| 2026-05-07 18:42 | 60.42596 | 11.03025 | 4983 ft | 236 kts | 33° |
| 2026-05-07 18:43 | 60.43908 | 11.05020 | 4913 ft | 236 kts | 47° |
| 2026-05-07 18:43 | 60.44717 | 11.07846 | 4624 ft | 233 kts | 75° |
| 2026-05-07 18:43 | 60.44823 | 11.11077 | 4312 ft | 231 kts | 101° |
| 2026-05-07 18:43 | 60.44231 | 11.14060 | 4031 ft | 228 kts | 127° |
| 2026-05-07 18:44 | 60.43205 | 11.16532 | 3984 ft | 230 kts | 131° |
| 2026-05-07 18:44 | 60.42166 | 11.18974 | 3988 ft | 232 kts | 131° |
| 2026-05-07 18:44 | 60.41002 | 11.21176 | 3982 ft | 224 kts | 148° |
| 2026-05-07 18:44 | 60.39623 | 11.22384 | 3979 ft | 212 kts | 168° |
| 2026-05-07 18:45 | 60.38170 | 11.22593 | 3983 ft | 209 kts | 187° |
| 2026-05-07 18:45 | 60.36755 | 11.21929 | 3987 ft | 209 kts | 197° |
| 2026-05-07 18:45 | 60.35370 | 11.21117 | 3834 ft | 204 kts | 197° |
| 2026-05-07 18:45 | 60.34029 | 11.20333 | 3609 ft | 198 kts | 197° |
| 2026-05-07 18:46 | 60.32716 | 11.19567 | 3330 ft | 194 kts | 197° |
| 2026-05-07 18:46 | 60.31428 | 11.18816 | 3063 ft | 191 kts | 197° |
| 2026-05-07 18:46 | 60.30162 | 11.18079 | 2802 ft | 188 kts | 197° |
| 2026-05-07 18:46 | 60.28914 | 11.17353 | 2547 ft | 185 kts | 196° |
| 2026-05-07 18:47 | 60.27708 | 11.16651 | 2291 ft | 173 kts | 196° |
| 2026-05-07 18:47 | 60.26624 | 11.16021 | 2085 ft | 152 kts | 196° |
| 2026-05-07 18:47 | 60.25649 | 11.15455 | 1873 ft | 142 kts | 196° |
| 2026-05-07 18:47 | 60.24709 | 11.14910 | 1689 ft | 139 kts | 196° |
| 2026-05-07 18:48 | 60.23781 | 11.14371 | 1472 ft | 138 kts | 196° |
| 2026-05-07 18:48 | 60.22856 | 11.13834 | 1283 ft | 138 kts | 196° |
| 2026-05-07 18:48 | 60.21927 | 11.13299 | 1098 ft | 139 kts | 196° |
| 2026-05-07 18:48 | 60.20995 | 11.12761 | 903 ft | 140 kts | 196° |
| 2026-05-07 18:49 | 60.20060 | 11.12221 | 728 ft | 140 kts | 196° |
| 2026-05-07 18:49 | 60.19184 | 11.11707 | 679 ft | 107 kts | 196° |
| 2026-05-07 18:49 | 60.18709 | 11.11426 | 676 ft | 50 kts | 197° |
| 2026-05-07 18:49 | 60.18489 | 11.11225 | 675 ft | 13 kts | 221° |
| 2026-05-07 18:50 | 60.18437 | 11.11070 | 676 ft | 12 kts | 268° |
| 2026-05-07 18:50 | 60.18459 | 11.10914 | 674 ft | 11 kts | 289° |
| 2026-05-07 18:50 | 60.18483 | 11.10786 | 676 ft | 10 kts | 309° |
| 2026-05-07 18:50 | 60.18559 | 11.10781 | 677 ft | 14 kts | 14° |
| 2026-05-07 18:51 | 60.18673 | 11.10846 | 677 ft | 19 kts | 16° |
| 2026-05-07 18:51 | 60.18805 | 11.10923 | 677 ft | 21 kts | 16° |
| 2026-05-07 18:51 | 60.18944 | 11.11003 | 678 ft | 21 kts | 16° |
| 2026-05-07 18:51 | 60.19054 | 11.11067 | 679 ft | 14 kts | 16° |
| 2026-05-07 18:52 | 60.19154 | 11.11123 | 679 ft | 16 kts | 15° |
| 2026-05-07 18:52 | 60.19273 | 11.11193 | 679 ft | 19 kts | 16° |
| 2026-05-07 18:52 | 60.19391 | 11.11260 | 680 ft | 14 kts | 16° |
| 2026-05-07 18:52 | 60.19486 | 11.11263 | 679 ft | 15 kts | 314° |
| 2026-05-07 18:53 | 60.19522 | 11.11042 | 678 ft | 18 kts | 286° |
| 2026-05-07 18:53 | 60.19556 | 11.10810 | 680 ft | 16 kts | 286° |
| 2026-05-07 18:53 | 60.19587 | 11.10599 | 680 ft | 14 kts | 287° |
| 2026-05-07 18:53 | 60.19610 | 11.10436 | 677 ft | 10 kts | 285° |
| 2026-05-07 18:54 | 60.19626 | 11.10313 | 676 ft | 6 kts | 285° |
| 2026-05-07 18:54 | 60.19635 | 11.10252 | 679 ft | 3 kts | 285° |
| 2026-05-07 18:54 | 60.19637 | 11.10232 | 676 ft | 0 kts | 285° |